Time;durP1;ratioP1;P1;durP2;ratioP2;P2;SDS_P1;SDS_P2;PMS_P1;PMS_P2;Temp;Humidity;BMP_temperature;BMP_pressure;BME280_temperature;BME280_humidity;BME280_pressure;Samples;Min_cycle;Max_cycle;Signal;HPM_P1;HPM_P2
2022/10/10 00:04:46;;;;;;;5.57;2.20;;;15.80;99.90;;;;;;7644549;76;26275;-57
2022/10/10 00:14:48;;;;;;;5.30;2.23;;;15.80;99.90;;;;;;7659707;76;26241;-56
2022/10/10 00:24:51;;;;;;;3.73;2.13;;;15.90;99.90;;;;;;7584146;76;26347;-56
2022/10/10 00:34:53;;;;;;;5.33;2.67;;;15.80;99.90;;;;;;7582844;76;26340;-56
2022/10/10 00:45:24;;;;;;;7.50;2.47;;;15.80;99.90;;;;;;7605676;76;26279;-55
2022/10/10 00:55:27;;;;;;;8.13;2.40;;;15.80;99.90;;;;;;7611240;76;26345;-57
2022/10/10 01:05:30;;;;;;;11.27;2.63;;;15.80;99.90;;;;;;7576035;76;26278;-54
2022/10/10 01:15:41;;;;;;;5.23;2.43;;;15.80;99.90;;;;;;7560996;76;26263;-57
2022/10/10 01:26:12;;;;;;;4.07;1.87;;;15.70;99.90;;;;;;7588217;76;26271;-55
2022/10/10 01:36:18;;;;;;;3.47;2.07;;;15.70;99.90;;;;;;7594355;77;26237;-57
2022/10/10 01:46:20;;;;;;;3.50;1.87;;;15.70;99.90;;;;;;7602344;76;26287;-55
2022/10/10 01:56:29;;;;;;;9.57;2.33;;;15.70;99.90;;;;;;7608055;76;26281;-53
2022/10/10 02:06:34;;;;;;;5.10;2.00;;;15.70;99.90;;;;;;7570118;76;26340;-53
2022/10/10 02:16:39;;;;;;;8.60;2.23;;;15.60;99.90;;;;;;7636440;76;26209;-54
2022/10/10 02:26:45;;;;;;;6.40;1.97;;;15.50;99.90;;;;;;7610407;76;26853;-55
2022/10/10 02:36:53;;;;;;;5.30;1.97;;;15.60;99.90;;;;;;7574218;76;26255;-56
2022/10/10 02:46:56;;;;;;;2.97;1.77;;;15.60;99.90;;;;;;7569928;76;26262;-56
2022/10/10 02:56:58;;;;;;;5.23;1.67;;;15.50;99.90;;;;;;7607394;76;26249;-57
2022/10/10 03:07:01;;;;;;;6.30;2.60;;;15.50;99.90;;;;;;7577615;76;26347;-56
2022/10/10 03:17:03;;;;;;;3.97;1.63;;;15.50;99.90;;;;;;7587830;76;27250;-54
2022/10/10 03:27:06;;;;;;;5.63;2.20;;;15.50;99.90;;;;;;7605565;76;26287;-55
2022/10/10 03:37:09;;;;;;;6.90;2.20;;;15.40;99.90;;;;;;7593451;76;26255;-58
2022/10/10 03:47:11;;;;;;;3.03;1.90;;;15.40;99.90;;;;;;7612095;76;26276;-56
2022/10/10 03:57:14;;;;;;;3.83;1.93;;;15.40;99.90;;;;;;7615890;76;26268;-58
2022/10/10 04:07:16;;;;;;;3.20;2.03;;;15.40;99.90;;;;;;7627875;76;26739;-58
2022/10/10 04:17:19;;;;;;;3.63;1.70;;;15.40;99.90;;;;;;7598993;76;26271;-56
2022/10/10 04:27:21;;;;;;;4.30;2.60;;;15.40;99.90;;;;;;7567541;76;26333;-55
2022/10/10 04:37:24;;;;;;;5.20;2.07;;;15.30;99.90;;;;;;7586810;76;26745;-57
2022/10/10 04:47:26;;;;;;;8.30;2.30;;;15.30;99.90;;;;;;7602223;76;26310;-55
2022/10/10 04:57:29;;;;;;;4.67;2.13;;;15.30;99.90;;;;;;7612184;76;26258;-57
2022/10/10 05:07:31;;;;;;;4.20;1.93;;;15.30;99.90;;;;;;7606623;76;26310;-57
2022/10/10 05:17:34;;;;;;;4.60;2.47;;;15.20;99.90;;;;;;7600353;76;26341;-54
2022/10/10 05:27:36;;;;;;;6.93;2.27;;;15.20;99.90;;;;;;7585074;76;26322;-57
2022/10/10 05:37:39;;;;;;;4.93;2.13;;;15.20;99.90;;;;;;7600595;76;26814;-55
2022/10/10 05:47:41;;;;;;;7.50;2.00;;;15.20;99.90;;;;;;7637915;76;26283;-55
2022/10/10 05:57:44;;;;;;;9.97;2.00;;;15.20;99.90;;;;;;7673022;76;27090;-55
2022/10/10 06:07:46;;;;;;;16.57;2.87;;;15.20;99.90;;;;;;7653332;76;26322;-53
2022/10/10 06:17:49;;;;;;;22.17;4.73;;;14.90;99.90;;;;;;7617369;76;26271;-55
2022/10/10 06:27:51;;;;;;;16.17;3.70;;;15.20;99.90;;;;;;7594230;76;26405;-56
2022/10/10 06:37:54;;;;;;;21.43;4.80;;;15.00;99.90;;;;;;7618344;76;26853;-57
2022/10/10 06:47:56;;;;;;;20.50;5.00;;;15.20;99.90;;;;;;7631604;76;26879;-57
2022/10/10 06:57:59;;;;;;;18.43;3.87;;;15.30;99.90;;;;;;7587942;76;26333;-56
2022/10/10 07:08:01;;;;;;;17.23;4.20;;;15.30;99.90;;;;;;7658131;76;26345;-57
2022/10/10 07:18:04;;;;;;;13.00;3.20;;;15.30;99.90;;;;;;7686958;76;26377;-57
2022/10/10 07:28:07;;;;;;;6.30;2.77;;;15.30;99.90;;;;;;7694818;76;26253;-55
2022/10/10 07:38:11;;;;;;;10.57;2.70;;;15.50;99.90;;;;;;7663008;76;26260;-56
2022/10/10 07:48:14;;;;;;;8.80;2.93;;;15.50;99.90;;;;;;7659109;76;26295;-56
2022/10/10 07:58:16;;;;;;;14.57;4.17;;;15.50;99.90;;;;;;7689077;76;26265;-55
2022/10/10 08:08:19;;;;;;;10.00;2.63;;;15.60;99.90;;;;;;7660697;76;26294;-54
2022/10/10 08:18:21;;;;;;;11.83;3.00;;;15.70;99.90;;;;;;7674602;76;26866;-55
2022/10/10 08:28:24;;;;;;;10.00;3.50;;;15.70;99.90;;;;;;7623830;76;26407;-56
2022/10/10 08:38:26;;;;;;;9.10;3.70;;;15.90;99.90;;;;;;7668070;76;26373;-56
2022/10/10 08:48:31;;;;;;;11.27;4.70;;;16.20;99.90;;;;;;7668250;76;26316;-56
2022/10/10 08:58:42;;;;;;;9.67;4.10;;;16.40;99.90;;;;;;7674077;76;26649;-55
2022/10/10 09:08:47;;;;;;;9.40;3.50;;;16.60;99.90;;;;;;7637495;76;26276;-55
2022/10/10 09:19:05;;;;;;;6.70;3.67;;;16.70;99.90;;;;;;7645493;76;26860;-56
2022/10/10 09:29:29;;;;;;;9.83;3.60;;;16.90;99.90;;;;;;7678173;76;26774;-55
2022/10/10 09:39:37;;;;;;;11.10;4.37;;;17.10;99.90;;;;;;7673814;76;26261;-58
2022/10/10 09:49:40;;;;;;;9.40;3.33;;;17.20;99.90;;;;;;7682553;76;26723;-56
2022/10/10 09:59:45;;;;;;;9.17;3.73;;;17.30;99.90;;;;;;7689120;76;26755;-55
2022/10/10 10:09:49;;;;;;;7.90;4.03;;;17.40;99.90;;;;;;7671802;76;26346;-57
2022/10/10 10:19:52;;;;;;;12.17;3.53;;;17.50;99.90;;;;;;7648648;76;26735;-58
2022/10/10 10:29:57;;;;;;;9.13;3.67;;;17.50;99.90;;;;;;7675001;76;26256;-57
2022/10/10 10:40:19;;;;;;;10.97;3.17;;;17.60;99.90;;;;;;7670505;76;27140;-56
2022/10/10 10:50:36;;;;;;;12.07;3.43;;;17.60;99.90;;;;;;7671752;76;26763;-55
2022/10/10 11:00:47;;;;;;;9.07;3.53;;;17.70;99.90;;;;;;7687927;76;26339;-56
2022/10/10 11:11:02;;;;;;;7.53;3.60;;;17.70;99.90;;;;;;7673532;76;26751;-57
2022/10/10 11:21:07;;;;;;;12.00;2.70;;;17.70;99.90;;;;;;7627830;76;26380;-57
2022/10/10 11:31:16;;;;;;;7.73;3.30;;;17.70;99.90;;;;;;7610475;76;27136;-57
2022/10/10 11:41:33;;;;;;;8.90;3.57;;;17.70;99.90;;;;;;7594988;76;26279;-54
2022/10/10 11:51:39;;;;;;;6.93;3.33;;;17.80;99.90;;;;;;7620418;76;26267;-56
2022/10/10 12:01:51;;;;;;;4.03;2.80;;;17.80;99.90;;;;;;7635364;76;26264;-57
2022/10/10 12:11:56;;;;;;;5.80;2.50;;;17.80;99.90;;;;;;7606388;76;26333;-53
2022/10/10 12:22:10;;;;;;;6.50;2.73;;;17.80;99.90;;;;;;7627451;76;26259;-53
2022/10/10 12:32:19;;;;;;;11.73;2.60;;;17.90;99.90;;;;;;7618851;76;26267;-59
2022/10/10 12:42:31;;;;;;;7.60;2.80;;;17.90;99.90;;;;;;7656960;76;26257;-54
2022/10/10 12:52:36;;;;;;;4.93;2.30;;;17.90;99.90;;;;;;7620644;76;26337;-54
2022/10/10 13:02:42;;;;;;;8.97;3.00;;;18.00;99.90;;;;;;7605284;76;26270;-58
2022/10/10 13:12:45;;;;;;;9.17;2.90;;;18.00;99.90;;;;;;7597716;76;26313;-54
2022/10/10 13:22:47;;;;;;;9.53;2.80;;;18.00;99.90;;;;;;7609198;76;26306;-56
2022/10/10 13:32:52;;;;;;;6.97;2.90;;;18.10;99.90;;;;;;7690103;76;26328;-56
2022/10/10 13:42:57;;;;;;;24.10;3.83;;;18.10;99.90;;;;;;7636755;76;26731;-55
2022/10/10 13:53:29;;;;;;;8.50;3.23;;;18.10;99.90;;;;;;7626267;76;26294;-57
2022/10/10 14:03:33;;;;;;;23.13;3.20;;;18.10;99.90;;;;;;7600303;76;26336;-57
2022/10/10 14:13:38;;;;;;;7.90;2.40;;;18.10;99.90;;;;;;7583610;76;26366;-54
2022/10/10 14:23:40;;;;;;;18.47;3.07;;;18.10;99.90;;;;;;7606862;76;26274;-55
2022/10/10 14:33:43;;;;;;;12.83;3.53;;;18.20;99.90;;;;;;7604176;76;26369;-57
2022/10/10 14:43:45;;;;;;;9.57;2.73;;;18.20;99.90;;;;;;7617469;76;26737;-57
2022/10/10 14:53:48;;;;;;;17.97;6.17;;;18.20;99.90;;;;;;7619592;76;26580;-56
2022/10/10 15:03:50;;;;;;;10.43;3.27;;;18.20;99.90;;;;;;7615283;76;26378;-57
2022/10/10 15:13:53;;;;;;;12.30;3.17;;;18.20;99.90;;;;;;7633144;76;26315;-56
2022/10/10 15:23:57;;;;;;;10.50;2.90;;;18.20;99.90;;;;;;7569539;76;26799;-54
2022/10/10 15:33:59;;;;;;;11.07;2.73;;;18.20;99.90;;;;;;7611525;76;26392;-57
2022/10/10 15:44:02;;;;;;;6.67;2.90;;;18.20;99.90;;;;;;7591352;76;26304;-57
2022/10/10 15:54:05;;;;;;;7.43;2.50;;;18.20;99.90;;;;;;7589865;76;26831;-56
2022/10/10 16:04:08;;;;;;;4.80;2.23;;;18.20;99.90;;;;;;7600723;76;26299;-57
2022/10/10 16:14:10;;;;;;;6.03;2.50;;;18.20;99.90;;;;;;7583323;76;27553;-54
2022/10/10 16:24:13;;;;;;;5.73;2.60;;;18.20;99.90;;;;;;7611730;76;26365;-56
2022/10/10 16:34:17;;;;;;;13.13;3.63;;;18.20;99.90;;;;;;7579824;76;26314;-57
2022/10/10 16:44:20;;;;;;;16.60;4.37;;;18.20;99.90;;;;;;7567676;76;26313;-56
2022/10/10 16:54:22;;;;;;;18.03;5.10;;;18.20;99.90;;;;;;7579083;76;26363;-55
2022/10/10 17:04:25;;;;;;;28.27;6.87;;;18.20;99.90;;;;;;7573610;76;26396;-55
2022/10/10 17:14:27;;;;;;;32.37;8.27;;;18.20;99.90;;;;;;7575711;76;26339;-54
2022/10/10 17:24:30;;;;;;;24.13;8.03;;;18.10;99.90;;;;;;7557694;76;26303;-57
2022/10/10 17:34:32;;;;;;;26.63;8.57;;;18.10;99.90;;;;;;7572873;76;26785;-56
2022/10/10 17:44:35;;;;;;;41.30;9.67;;;18.10;99.90;;;;;;7578984;76;26310;-55
2022/10/10 17:54:37;;;;;;;29.83;6.97;;;18.20;99.90;;;;;;7586640;76;26292;-56
2022/10/10 18:04:40;;;;;;;27.53;6.53;;;18.20;99.90;;;;;;7596823;76;26388;-56
2022/10/10 18:14:43;;;;;;;25.07;7.50;;;18.20;99.90;;;;;;7672993;76;26301;-57
2022/10/10 18:24:45;;;;;;;17.80;7.20;;;18.30;99.90;;;;;;7605805;76;26838;-56
2022/10/10 18:34:48;;;;;;;24.73;7.17;;;18.30;99.90;;;;;;7608417;76;26284;-55
2022/10/10 18:44:50;;;;;;;24.00;6.30;;;18.30;99.90;;;;;;7604724;76;26248;-56
2022/10/10 18:54:53;;;;;;;26.20;7.53;;;18.30;99.90;;;;;;7593618;76;26245;-56
2022/10/10 19:04:55;;;;;;;33.77;7.00;;;18.30;99.90;;;;;;7596054;76;26821;-56
2022/10/10 19:14:58;;;;;;;30.50;7.33;;;18.30;99.90;;;;;;7610590;76;26330;-56
2022/10/10 19:25:01;;;;;;;24.60;6.87;;;18.30;99.90;;;;;;7597816;76;26288;-57
2022/10/10 19:35:04;;;;;;;23.53;6.53;;;18.30;99.90;;;;;;7608683;76;26301;-57
2022/10/10 19:45:08;;;;;;;18.53;5.70;;;18.30;99.90;;;;;;7583419;76;26329;-54
2022/10/10 19:55:11;;;;;;;18.40;6.00;;;18.30;99.90;;;;;;7594835;76;26360;-56
2022/10/10 20:05:13;;;;;;;23.47;7.07;;;18.30;99.90;;;;;;7624859;76;26255;-56
2022/10/10 20:15:16;;;;;;;29.47;7.07;;;18.20;99.90;;;;;;7613134;77;26357;-52
2022/10/10 20:25:18;;;;;;;16.73;6.10;;;18.20;99.90;;;;;;7654700;76;26266;-52
2022/10/10 20:35:21;;;;;;;19.33;6.07;;;18.20;99.90;;;;;;7618600;76;26272;-52
2022/10/10 20:45:24;;;;;;;16.37;5.67;;;18.10;99.90;;;;;;7633686;76;26365;-52
2022/10/10 20:55:26;;;;;;;12.00;4.83;;;18.10;99.90;;;;;;7633126;76;26753;-52
2022/10/10 21:05:29;;;;;;;25.07;5.30;;;18.10;99.90;;;;;;7622365;76;26261;-55
2022/10/10 21:15:32;;;;;;;12.73;5.43;;;18.10;99.90;;;;;;7675668;76;26320;-55
2022/10/10 21:25:39;;;;;;;16.60;5.07;;;17.90;99.90;;;;;;7648111;76;26313;-55
2022/10/10 21:35:42;;;;;;;14.80;6.47;;;17.80;99.90;;;;;;7659954;76;26276;-57
2022/10/10 21:45:45;;;;;;;13.10;4.97;;;17.80;99.90;;;;;;7648491;76;26271;-55
2022/10/10 21:55:47;;;;;;;12.53;4.60;;;17.70;99.90;;;;;;7588502;76;26252;-58
2022/10/10 22:05:50;;;;;;;12.07;6.00;;;17.80;99.90;;;;;;7600455;76;26374;-55
2022/10/10 22:15:52;;;;;;;10.07;4.87;;;17.80;99.90;;;;;;7670833;76;26252;-56
2022/10/10 22:25:55;;;;;;;11.93;5.83;;;17.90;99.90;;;;;;7654810;76;26326;-53
2022/10/10 22:35:57;;;;;;;12.03;5.37;;;17.90;99.90;;;;;;7584149;76;26287;-52
2022/10/10 22:46:00;;;;;;;8.97;5.60;;;17.80;99.90;;;;;;7662096;76;27031;-53
2022/10/10 22:56:03;;;;;;;11.13;6.43;;;17.70;99.90;;;;;;7685038;76;26237;-53
2022/10/10 23:06:06;;;;;;;11.70;6.87;;;17.70;99.90;;;;;;7682425;76;26245;-52
2022/10/10 23:16:09;;;;;;;13.67;6.37;;;17.70;99.90;;;;;;7682410;76;26315;-54
2022/10/10 23:26:12;;;;;;;14.50;8.63;;;17.70;99.90;;;;;;7681755;76;26763;-52
2022/10/10 23:36:15;;;;;;;12.70;6.83;;;17.30;99.90;;;;;;7681097;76;26351;-51
2022/10/10 23:46:18;;;;;;;8.97;5.57;;;17.50;99.90;;;;;;7682535;76;26306;-55
2022/10/10 23:56:20;;;;;;;8.70;4.63;;;17.40;99.90;;;;;;7676330;76;26278;-53
